sensor_id;sensor_type;location;lat;lon;timestamp;P1;durP1;ratioP1;P2;durP2;ratioP2
20609;SDS011;10463;52.378;9.688;2022-12-22T00:01:34;1.47;;;0.80;;
20609;SDS011;10463;52.378;9.688;2022-12-22T00:04:47;1.40;;;0.90;;
20609;SDS011;10463;52.378;9.688;2022-12-22T00:07:51;1.67;;;0.90;;
20609;SDS011;10463;52.378;9.688;2022-12-22T00:10:55;1.40;;;0.80;;
20609;SDS011;10463;52.378;9.688;2022-12-22T00:13:59;1.70;;;0.87;;
20609;SDS011;10463;52.378;9.688;2022-12-22T00:17:07;1.60;;;0.93;;
20609;SDS011;10463;52.378;9.688;2022-12-22T00:20:19;1.50;;;0.80;;
20609;SDS011;10463;52.378;9.688;2022-12-22T00:23:23;1.40;;;0.90;;
20609;SDS011;10463;52.378;9.688;2022-12-22T00:26:26;1.40;;;0.87;;
20609;SDS011;10463;52.378;9.688;2022-12-22T00:29:34;1.60;;;0.90;;
20609;SDS011;10463;52.378;9.688;2022-12-22T00:32:41;2.13;;;1.33;;
20609;SDS011;10463;52.378;9.688;2022-12-22T00:35:44;1.83;;;1.10;;
20609;SDS011;10463;52.378;9.688;2022-12-22T00:38:48;1.77;;;1.20;;
20609;SDS011;10463;52.378;9.688;2022-12-22T00:41:51;1.63;;;0.80;;
20609;SDS011;10463;52.378;9.688;2022-12-22T00:44:55;2.87;;;0.70;;
20609;SDS011;10463;52.378;9.688;2022-12-22T00:48:03;1.40;;;0.80;;
20609;SDS011;10463;52.378;9.688;2022-12-22T00:51:07;1.37;;;0.83;;
20609;SDS011;10463;52.378;9.688;2022-12-22T00:54:13;1.43;;;0.80;;
20609;SDS011;10463;52.378;9.688;2022-12-22T00:57:18;1.60;;;0.90;;
20609;SDS011;10463;52.378;9.688;2022-12-22T01:00:26;1.60;;;0.90;;
20609;SDS011;10463;52.378;9.688;2022-12-22T01:03:31;1.50;;;0.80;;
20609;SDS011;10463;52.378;9.688;2022-12-22T01:06:35;1.30;;;0.70;;
20609;SDS011;10463;52.378;9.688;2022-12-22T01:09:39;1.40;;;0.70;;
20609;SDS011;10463;52.378;9.688;2022-12-22T01:12:47;1.40;;;0.70;;
20609;SDS011;10463;52.378;9.688;2022-12-22T01:15:51;1.30;;;0.70;;
20609;SDS011;10463;52.378;9.688;2022-12-22T01:18:55;1.87;;;0.77;;
20609;SDS011;10463;52.378;9.688;2022-12-22T01:21:59;1.47;;;0.87;;
20609;SDS011;10463;52.378;9.688;2022-12-22T01:25:08;1.30;;;0.70;;
20609;SDS011;10463;52.378;9.688;2022-12-22T01:28:15;1.40;;;0.73;;
20609;SDS011;10463;52.378;9.688;2022-12-22T01:31:23;1.40;;;0.80;;
20609;SDS011;10463;52.378;9.688;2022-12-22T01:34:31;1.97;;;0.80;;
20609;SDS011;10463;52.378;9.688;2022-12-22T01:37:34;1.57;;;0.87;;
20609;SDS011;10463;52.378;9.688;2022-12-22T01:40:38;1.47;;;0.80;;
20609;SDS011;10463;52.378;9.688;2022-12-22T01:43:41;1.63;;;0.80;;
20609;SDS011;10463;52.378;9.688;2022-12-22T01:46:45;1.30;;;0.70;;
20609;SDS011;10463;52.378;9.688;2022-12-22T01:49:50;1.67;;;0.80;;
20609;SDS011;10463;52.378;9.688;2022-12-22T01:52:53;1.83;;;0.70;;
20609;SDS011;10463;52.378;9.688;2022-12-22T01:55:57;1.53;;;0.80;;
20609;SDS011;10463;52.378;9.688;2022-12-22T01:59:03;1.50;;;0.70;;
20609;SDS011;10463;52.378;9.688;2022-12-22T02:02:07;1.30;;;0.70;;
20609;SDS011;10463;52.378;9.688;2022-12-22T02:05:15;1.57;;;0.83;;
20609;SDS011;10463;52.378;9.688;2022-12-22T02:08:22;1.20;;;0.60;;
20609;SDS011;10463;52.378;9.688;2022-12-22T02:11:32;1.50;;;0.80;;
20609;SDS011;10463;52.378;9.688;2022-12-22T02:14:45;1.40;;;0.70;;
20609;SDS011;10463;52.378;9.688;2022-12-22T02:18:00;1.43;;;0.70;;
20609;SDS011;10463;52.378;9.688;2022-12-22T02:21:12;1.40;;;0.80;;
20609;SDS011;10463;52.378;9.688;2022-12-22T02:24:23;1.90;;;0.90;;
20609;SDS011;10463;52.378;9.688;2022-12-22T02:27:37;1.20;;;0.60;;
20609;SDS011;10463;52.378;9.688;2022-12-22T02:30:43;1.30;;;0.70;;
20609;SDS011;10463;52.378;9.688;2022-12-22T02:33:47;1.30;;;0.70;;
20609;SDS011;10463;52.378;9.688;2022-12-22T02:36:54;1.50;;;0.80;;
20609;SDS011;10463;52.378;9.688;2022-12-22T02:40:08;1.63;;;1.03;;
20609;SDS011;10463;52.378;9.688;2022-12-22T02:43:28;1.30;;;0.77;;
20609;SDS011;10463;52.378;9.688;2022-12-22T02:46:44;1.37;;;1.07;;
20609;SDS011;10463;52.378;9.688;2022-12-22T02:49:52;3.57;;;1.30;;
20609;SDS011;10463;52.378;9.688;2022-12-22T02:53:00;1.97;;;0.80;;
20609;SDS011;10463;52.378;9.688;2022-12-22T02:56:05;1.50;;;0.97;;
20609;SDS011;10463;52.378;9.688;2022-12-22T02:59:11;1.73;;;1.07;;
20609;SDS011;10463;52.378;9.688;2022-12-22T03:02:15;1.40;;;0.80;;
20609;SDS011;10463;52.378;9.688;2022-12-22T03:05:19;1.60;;;0.90;;
20609;SDS011;10463;52.378;9.688;2022-12-22T03:08:22;1.90;;;1.00;;
20609;SDS011;10463;52.378;9.688;2022-12-22T03:11:26;1.83;;;1.10;;
20609;SDS011;10463;52.378;9.688;2022-12-22T03:14:31;2.47;;;1.10;;
20609;SDS011;10463;52.378;9.688;2022-12-22T03:17:34;2.00;;;1.30;;
20609;SDS011;10463;52.378;9.688;2022-12-22T03:20:38;1.60;;;0.97;;
20609;SDS011;10463;52.378;9.688;2022-12-22T03:23:41;1.63;;;1.10;;
20609;SDS011;10463;52.378;9.688;2022-12-22T03:26:44;2.10;;;1.33;;
20609;SDS011;10463;52.378;9.688;2022-12-22T03:29:30;2.00;;;1.27;;
20609;SDS011;10463;52.378;9.688;2022-12-22T03:32:15;1.50;;;0.90;;
20609;SDS011;10463;52.378;9.688;2022-12-22T03:34:59;2.20;;;1.10;;
20609;SDS011;10463;52.378;9.688;2022-12-22T03:37:44;1.70;;;0.90;;
20609;SDS011;10463;52.378;9.688;2022-12-22T03:40:29;1.57;;;1.00;;
20609;SDS011;10463;52.378;9.688;2022-12-22T03:43:15;1.53;;;1.07;;
20609;SDS011;10463;52.378;9.688;2022-12-22T03:46:20;1.57;;;0.90;;
20609;SDS011;10463;52.378;9.688;2022-12-22T03:49:14;1.80;;;1.27;;
20609;SDS011;10463;52.378;9.688;2022-12-22T03:51:59;1.73;;;1.13;;
20609;SDS011;10463;52.378;9.688;2022-12-22T03:54:44;1.60;;;1.00;;
20609;SDS011;10463;52.378;9.688;2022-12-22T03:57:28;1.67;;;1.10;;
20609;SDS011;10463;52.378;9.688;2022-12-22T04:00:14;1.50;;;1.00;;
20609;SDS011;10463;52.378;9.688;2022-12-22T04:03:00;1.70;;;1.03;;
20609;SDS011;10463;52.378;9.688;2022-12-22T04:05:45;1.70;;;1.00;;
20609;SDS011;10463;52.378;9.688;2022-12-22T04:08:29;1.57;;;1.03;;
20609;SDS011;10463;52.378;9.688;2022-12-22T04:11:15;1.70;;;1.13;;
20609;SDS011;10463;52.378;9.688;2022-12-22T04:14:18;1.50;;;0.90;;
20609;SDS011;10463;52.378;9.688;2022-12-22T04:17:04;1.70;;;1.10;;
20609;SDS011;10463;52.378;9.688;2022-12-22T04:19:51;1.80;;;1.20;;
20609;SDS011;10463;52.378;9.688;2022-12-22T04:22:35;1.70;;;1.30;;
20609;SDS011;10463;52.378;9.688;2022-12-22T04:25:21;2.00;;;1.47;;
20609;SDS011;10463;52.378;9.688;2022-12-22T04:28:06;1.93;;;1.30;;
20609;SDS011;10463;52.378;9.688;2022-12-22T04:30:50;2.73;;;1.50;;
20609;SDS011;10463;52.378;9.688;2022-12-22T04:33:35;1.83;;;1.23;;
20609;SDS011;10463;52.378;9.688;2022-12-22T04:36:21;1.90;;;1.00;;
20609;SDS011;10463;52.378;9.688;2022-12-22T04:39:06;2.07;;;1.37;;
20609;SDS011;10463;52.378;9.688;2022-12-22T04:41:50;1.60;;;0.90;;
20609;SDS011;10463;52.378;9.688;2022-12-22T04:44:35;1.63;;;1.10;;
20609;SDS011;10463;52.378;9.688;2022-12-22T04:47:19;1.63;;;1.20;;
20609;SDS011;10463;52.378;9.688;2022-12-22T04:50:05;1.50;;;1.00;;
20609;SDS011;10463;52.378;9.688;2022-12-22T04:52:51;2.20;;;1.60;;
20609;SDS011;10463;52.378;9.688;2022-12-22T04:55:36;1.70;;;1.30;;
20609;SDS011;10463;52.378;9.688;2022-12-22T04:58:21;2.53;;;1.40;;
20609;SDS011;10463;52.378;9.688;2022-12-22T05:01:09;2.23;;;1.40;;
20609;SDS011;10463;52.378;9.688;2022-12-22T05:03:55;2.00;;;1.30;;
20609;SDS011;10463;52.378;9.688;2022-12-22T05:06:40;1.60;;;1.10;;
20609;SDS011;10463;52.378;9.688;2022-12-22T05:09:26;1.90;;;1.30;;
20609;SDS011;10463;52.378;9.688;2022-12-22T05:12:10;1.93;;;1.33;;
20609;SDS011;10463;52.378;9.688;2022-12-22T05:15:14;1.70;;;1.20;;
20609;SDS011;10463;52.378;9.688;2022-12-22T05:17:59;1.60;;;1.20;;
20609;SDS011;10463;52.378;9.688;2022-12-22T05:20:45;1.70;;;1.33;;
20609;SDS011;10463;52.378;9.688;2022-12-22T05:23:29;1.50;;;1.10;;
20609;SDS011;10463;52.378;9.688;2022-12-22T05:26:16;1.67;;;1.13;;
20609;SDS011;10463;52.378;9.688;2022-12-22T05:29:01;1.90;;;1.40;;
20609;SDS011;10463;52.378;9.688;2022-12-22T05:31:46;1.93;;;1.30;;
20609;SDS011;10463;52.378;9.688;2022-12-22T05:34:30;2.13;;;1.83;;
20609;SDS011;10463;52.378;9.688;2022-12-22T05:37:15;1.87;;;1.30;;
20609;SDS011;10463;52.378;9.688;2022-12-22T05:39:59;1.60;;;1.03;;
20609;SDS011;10463;52.378;9.688;2022-12-22T05:42:46;1.80;;;1.30;;
20609;SDS011;10463;52.378;9.688;2022-12-22T05:45:30;2.03;;;1.23;;
20609;SDS011;10463;52.378;9.688;2022-12-22T05:48:15;1.57;;;0.90;;
20609;SDS011;10463;52.378;9.688;2022-12-22T05:51:00;1.50;;;1.00;;
20609;SDS011;10463;52.378;9.688;2022-12-22T05:53:45;1.63;;;1.20;;
20609;SDS011;10463;52.378;9.688;2022-12-22T05:56:30;1.60;;;1.00;;
20609;SDS011;10463;52.378;9.688;2022-12-22T05:59:16;1.80;;;1.20;;
20609;SDS011;10463;52.378;9.688;2022-12-22T06:02:00;1.57;;;1.07;;
20609;SDS011;10463;52.378;9.688;2022-12-22T06:04:45;2.03;;;1.37;;
20609;SDS011;10463;52.378;9.688;2022-12-22T06:07:29;1.63;;;1.13;;
20609;SDS011;10463;52.378;9.688;2022-12-22T06:10:15;1.33;;;0.90;;
20609;SDS011;10463;52.378;9.688;2022-12-22T06:13:00;1.53;;;1.10;;
20609;SDS011;10463;52.378;9.688;2022-12-22T06:15:46;2.33;;;1.20;;
20609;SDS011;10463;52.378;9.688;2022-12-22T06:18:31;1.97;;;1.30;;
20609;SDS011;10463;52.378;9.688;2022-12-22T06:21:15;2.27;;;1.10;;
20609;SDS011;10463;52.378;9.688;2022-12-22T06:24:00;1.63;;;1.00;;
20609;SDS011;10463;52.378;9.688;2022-12-22T06:26:45;2.00;;;1.43;;
20609;SDS011;10463;52.378;9.688;2022-12-22T06:29:30;1.90;;;1.40;;
20609;SDS011;10463;52.378;9.688;2022-12-22T06:32:16;1.60;;;1.20;;
20609;SDS011;10463;52.378;9.688;2022-12-22T06:35:00;2.07;;;1.60;;
20609;SDS011;10463;52.378;9.688;2022-12-22T06:37:45;2.80;;;1.53;;
20609;SDS011;10463;52.378;9.688;2022-12-22T06:40:32;2.83;;;1.50;;
20609;SDS011;10463;52.378;9.688;2022-12-22T06:43:16;2.57;;;2.23;;
20609;SDS011;10463;52.378;9.688;2022-12-22T06:46:01;2.00;;;1.57;;
20609;SDS011;10463;52.378;9.688;2022-12-22T06:48:46;1.90;;;1.53;;
20609;SDS011;10463;52.378;9.688;2022-12-22T06:51:31;1.90;;;1.40;;
20609;SDS011;10463;52.378;9.688;2022-12-22T06:54:16;1.67;;;1.30;;
20609;SDS011;10463;52.378;9.688;2022-12-22T06:57:01;2.03;;;1.70;;
20609;SDS011;10463;52.378;9.688;2022-12-22T06:59:45;2.13;;;1.83;;
20609;SDS011;10463;52.378;9.688;2022-12-22T07:02:30;1.90;;;1.50;;
20609;SDS011;10463;52.378;9.688;2022-12-22T07:05:16;1.93;;;1.53;;
20609;SDS011;10463;52.378;9.688;2022-12-22T07:08:01;2.10;;;1.57;;
20609;SDS011;10463;52.378;9.688;2022-12-22T07:10:45;1.83;;;1.37;;
20609;SDS011;10463;52.378;9.688;2022-12-22T07:13:42;1.87;;;1.47;;
20609;SDS011;10463;52.378;9.688;2022-12-22T07:16:27;1.93;;;1.40;;
20609;SDS011;10463;52.378;9.688;2022-12-22T07:19:12;2.20;;;1.50;;
20609;SDS011;10463;52.378;9.688;2022-12-22T07:21:58;1.60;;;1.20;;
20609;SDS011;10463;52.378;9.688;2022-12-22T07:24:42;1.93;;;1.30;;
20609;SDS011;10463;52.378;9.688;2022-12-22T07:27:27;2.17;;;1.50;;
20609;SDS011;10463;52.378;9.688;2022-12-22T07:30:12;2.03;;;1.53;;
20609;SDS011;10463;52.378;9.688;2022-12-22T07:32:57;1.87;;;1.40;;
20609;SDS011;10463;52.378;9.688;2022-12-22T07:35:42;1.83;;;1.43;;
20609;SDS011;10463;52.378;9.688;2022-12-22T07:38:27;2.20;;;1.50;;
20609;SDS011;10463;52.378;9.688;2022-12-22T07:41:14;2.10;;;1.57;;
20609;SDS011;10463;52.378;9.688;2022-12-22T07:44:18;2.47;;;1.60;;
20609;SDS011;10463;52.378;9.688;2022-12-22T07:47:03;1.87;;;1.50;;
20609;SDS011;10463;52.378;9.688;2022-12-22T07:49:48;2.00;;;1.60;;
20609;SDS011;10463;52.378;9.688;2022-12-22T07:52:52;2.20;;;1.37;;
20609;SDS011;10463;52.378;9.688;2022-12-22T07:55:39;1.87;;;1.33;;
20609;SDS011;10463;52.378;9.688;2022-12-22T07:58:23;1.83;;;1.10;;
20609;SDS011;10463;52.378;9.688;2022-12-22T08:01:08;1.90;;;1.50;;
20609;SDS011;10463;52.378;9.688;2022-12-22T08:03:53;1.80;;;1.30;;
20609;SDS011;10463;52.378;9.688;2022-12-22T08:06:38;2.00;;;1.60;;
20609;SDS011;10463;52.378;9.688;2022-12-22T08:09:23;2.00;;;1.40;;
20609;SDS011;10463;52.378;9.688;2022-12-22T08:12:09;2.40;;;1.57;;
20609;SDS011;10463;52.378;9.688;2022-12-22T08:14:54;1.90;;;1.50;;
20609;SDS011;10463;52.378;9.688;2022-12-22T08:17:38;2.33;;;1.30;;
20609;SDS011;10463;52.378;9.688;2022-12-22T08:20:23;1.80;;;1.43;;
20609;SDS011;10463;52.378;9.688;2022-12-22T08:23:07;2.00;;;1.40;;
20609;SDS011;10463;52.378;9.688;2022-12-22T08:25:56;3.97;;;1.83;;
20609;SDS011;10463;52.378;9.688;2022-12-22T08:28:46;1.80;;;1.40;;
20609;SDS011;10463;52.378;9.688;2022-12-22T08:31:33;1.87;;;1.37;;
20609;SDS011;10463;52.378;9.688;2022-12-22T08:34:18;2.00;;;1.33;;
20609;SDS011;10463;52.378;9.688;2022-12-22T08:37:04;1.90;;;1.33;;
20609;SDS011;10463;52.378;9.688;2022-12-22T08:39:55;1.80;;;1.17;;
20609;SDS011;10463;52.378;9.688;2022-12-22T08:42:43;1.83;;;1.47;;
20609;SDS011;10463;52.378;9.688;2022-12-22T08:45:31;2.43;;;1.43;;
20609;SDS011;10463;52.378;9.688;2022-12-22T08:48:16;1.90;;;1.30;;
20609;SDS011;10463;52.378;9.688;2022-12-22T08:51:01;2.30;;;1.70;;
20609;SDS011;10463;52.378;9.688;2022-12-22T08:53:46;5.40;;;1.43;;
20609;SDS011;10463;52.378;9.688;2022-12-22T08:56:30;1.90;;;1.40;;
20609;SDS011;10463;52.378;9.688;2022-12-22T08:59:15;2.07;;;1.40;;
20609;SDS011;10463;52.378;9.688;2022-12-22T09:02:01;2.00;;;1.33;;
20609;SDS011;10463;52.378;9.688;2022-12-22T09:04:48;2.77;;;1.60;;
20609;SDS011;10463;52.378;9.688;2022-12-22T09:07:32;2.00;;;1.40;;
20609;SDS011;10463;52.378;9.688;2022-12-22T09:10:17;2.33;;;1.33;;
20609;SDS011;10463;52.378;9.688;2022-12-22T09:13:02;2.33;;;1.63;;
20609;SDS011;10463;52.378;9.688;2022-12-22T09:15:46;2.10;;;1.50;;
20609;SDS011;10463;52.378;9.688;2022-12-22T09:18:33;3.20;;;1.53;;
20609;SDS011;10463;52.378;9.688;2022-12-22T09:21:18;2.00;;;1.60;;
20609;SDS011;10463;52.378;9.688;2022-12-22T09:24:03;2.50;;;1.87;;
20609;SDS011;10463;52.378;9.688;2022-12-22T09:26:50;2.00;;;1.40;;
20609;SDS011;10463;52.378;9.688;2022-12-22T09:29:35;2.90;;;1.87;;
20609;SDS011;10463;52.378;9.688;2022-12-22T09:32:20;2.60;;;1.70;;
20609;SDS011;10463;52.378;9.688;2022-12-22T09:35:06;2.40;;;2.10;;
20609;SDS011;10463;52.378;9.688;2022-12-22T09:37:51;2.70;;;1.50;;
20609;SDS011;10463;52.378;9.688;2022-12-22T09:40:36;2.90;;;2.27;;
20609;SDS011;10463;52.378;9.688;2022-12-22T09:43:21;2.70;;;2.10;;
20609;SDS011;10463;52.378;9.688;2022-12-22T09:46:15;2.43;;;1.60;;
20609;SDS011;10463;52.378;9.688;2022-12-22T09:49:05;2.43;;;2.00;;
20609;SDS011;10463;52.378;9.688;2022-12-22T09:51:53;4.43;;;2.30;;
20609;SDS011;10463;52.378;9.688;2022-12-22T09:54:39;2.30;;;1.90;;
20609;SDS011;10463;52.378;9.688;2022-12-22T09:57:27;3.83;;;3.17;;
20609;SDS011;10463;52.378;9.688;2022-12-22T10:00:15;2.90;;;2.30;;
20609;SDS011;10463;52.378;9.688;2022-12-22T10:03:05;3.87;;;3.00;;
20609;SDS011;10463;52.378;9.688;2022-12-22T10:06:07;4.20;;;3.70;;
20609;SDS011;10463;52.378;9.688;2022-12-22T10:09:00;4.03;;;3.43;;
20609;SDS011;10463;52.378;9.688;2022-12-22T10:11:51;4.43;;;3.90;;
20609;SDS011;10463;52.378;9.688;2022-12-22T10:14:40;3.57;;;3.20;;
20609;SDS011;10463;52.378;9.688;2022-12-22T10:17:28;3.73;;;3.07;;
20609;SDS011;10463;52.378;9.688;2022-12-22T10:20:21;3.80;;;3.10;;
20609;SDS011;10463;52.378;9.688;2022-12-22T10:23:15;4.80;;;3.87;;
20609;SDS011;10463;52.378;9.688;2022-12-22T10:26:06;5.70;;;4.30;;
20609;SDS011;10463;52.378;9.688;2022-12-22T10:28:56;3.90;;;3.50;;
20609;SDS011;10463;52.378;9.688;2022-12-22T10:31:56;5.57;;;3.77;;
20609;SDS011;10463;52.378;9.688;2022-12-22T10:34:58;4.00;;;3.47;;
20609;SDS011;10463;52.378;9.688;2022-12-22T10:37:45;5.87;;;3.53;;
20609;SDS011;10463;52.378;9.688;2022-12-22T10:40:29;5.57;;;3.87;;
20609;SDS011;10463;52.378;9.688;2022-12-22T10:43:20;5.60;;;3.93;;
20609;SDS011;10463;52.378;9.688;2022-12-22T10:46:07;4.00;;;3.60;;
20609;SDS011;10463;52.378;9.688;2022-12-22T10:49:08;4.80;;;4.10;;
20609;SDS011;10463;52.378;9.688;2022-12-22T10:51:57;4.20;;;3.10;;
20609;SDS011;10463;52.378;9.688;2022-12-22T10:55:14;5.60;;;3.60;;
20609;SDS011;10463;52.378;9.688;2022-12-22T10:58:14;4.47;;;3.90;;
20609;SDS011;10463;52.378;9.688;2022-12-22T11:01:08;5.37;;;3.27;;
20609;SDS011;10463;52.378;9.688;2022-12-22T11:03:56;3.87;;;3.33;;
20609;SDS011;10463;52.378;9.688;2022-12-22T11:06:43;3.77;;;3.10;;
20609;SDS011;10463;52.378;9.688;2022-12-22T11:09:28;4.93;;;3.67;;
20609;SDS011;10463;52.378;9.688;2022-12-22T11:12:18;3.43;;;3.00;;
20609;SDS011;10463;52.378;9.688;2022-12-22T11:15:20;3.50;;;3.20;;
20609;SDS011;10463;52.378;9.688;2022-12-22T11:18:26;4.70;;;3.63;;
20609;SDS011;10463;52.378;9.688;2022-12-22T11:21:24;5.23;;;3.40;;
20609;SDS011;10463;52.378;9.688;2022-12-22T11:24:21;4.70;;;3.60;;
20609;SDS011;10463;52.378;9.688;2022-12-22T11:27:23;3.77;;;2.90;;
20609;SDS011;10463;52.378;9.688;2022-12-22T11:30:17;4.17;;;3.27;;
20609;SDS011;10463;52.378;9.688;2022-12-22T11:33:17;3.47;;;2.90;;
20609;SDS011;10463;52.378;9.688;2022-12-22T11:36:16;3.27;;;2.97;;
20609;SDS011;10463;52.378;9.688;2022-12-22T11:39:16;4.57;;;3.73;;
20609;SDS011;10463;52.378;9.688;2022-12-22T11:42:25;3.13;;;2.80;;
20609;SDS011;10463;52.378;9.688;2022-12-22T11:45:38;3.43;;;2.43;;
20609;SDS011;10463;52.378;9.688;2022-12-22T11:52:03;4.40;;;2.97;;
20609;SDS011;10463;52.378;9.688;2022-12-22T11:55:14;2.43;;;2.20;;
20609;SDS011;10463;52.378;9.688;2022-12-22T11:58:20;3.37;;;2.50;;
20609;SDS011;10463;52.378;9.688;2022-12-22T12:01:24;3.20;;;2.30;;
20609;SDS011;10463;52.378;9.688;2022-12-22T12:04:46;5.73;;;3.17;;
20609;SDS011;10463;52.378;9.688;2022-12-22T12:08:01;3.30;;;2.37;;
20609;SDS011;10463;52.378;9.688;2022-12-22T12:10:55;3.17;;;2.73;;
20609;SDS011;10463;52.378;9.688;2022-12-22T12:13:48;3.93;;;2.53;;
20609;SDS011;10463;52.378;9.688;2022-12-22T12:16:45;3.73;;;2.57;;
20609;SDS011;10463;52.378;9.688;2022-12-22T12:20:02;3.07;;;2.70;;
20609;SDS011;10463;52.378;9.688;2022-12-22T12:23:09;3.90;;;2.90;;
20609;SDS011;10463;52.378;9.688;2022-12-22T12:26:05;3.07;;;2.30;;
20609;SDS011;10463;52.378;9.688;2022-12-22T12:29:05;3.23;;;2.33;;
20609;SDS011;10463;52.378;9.688;2022-12-22T12:31:59;3.10;;;2.23;;
20609;SDS011;10463;52.378;9.688;2022-12-22T12:34:53;2.73;;;2.43;;
20609;SDS011;10463;52.378;9.688;2022-12-22T12:37:44;2.93;;;2.17;;
20609;SDS011;10463;52.378;9.688;2022-12-22T12:40:38;3.27;;;2.40;;
20609;SDS011;10463;52.378;9.688;2022-12-22T12:43:30;2.60;;;2.07;;
20609;SDS011;10463;52.378;9.688;2022-12-22T12:53:17;3.30;;;2.53;;
20609;SDS011;10463;52.378;9.688;2022-12-22T12:56:05;2.33;;;1.70;;
20609;SDS011;10463;52.378;9.688;2022-12-22T12:58:53;2.70;;;2.23;;
20609;SDS011;10463;52.378;9.688;2022-12-22T13:01:55;2.43;;;2.00;;
20609;SDS011;10463;52.378;9.688;2022-12-22T13:05:26;2.77;;;2.00;;
20609;SDS011;10463;52.378;9.688;2022-12-22T13:08:19;3.70;;;2.63;;
20609;SDS011;10463;52.378;9.688;2022-12-22T13:11:29;2.73;;;2.13;;
20609;SDS011;10463;52.378;9.688;2022-12-22T13:17:47;2.30;;;1.73;;
20609;SDS011;10463;52.378;9.688;2022-12-22T13:20:34;2.93;;;2.30;;
20609;SDS011;10463;52.378;9.688;2022-12-22T13:23:21;2.77;;;2.20;;
20609;SDS011;10463;52.378;9.688;2022-12-22T13:26:08;3.07;;;2.33;;
20609;SDS011;10463;52.378;9.688;2022-12-22T13:28:57;2.60;;;2.10;;
20609;SDS011;10463;52.378;9.688;2022-12-22T13:31:45;2.50;;;2.00;;
20609;SDS011;10463;52.378;9.688;2022-12-22T13:34:38;2.40;;;1.83;;
20609;SDS011;10463;52.378;9.688;2022-12-22T13:37:28;2.93;;;1.97;;
20609;SDS011;10463;52.378;9.688;2022-12-22T13:40:16;2.37;;;1.83;;
20609;SDS011;10463;52.378;9.688;2022-12-22T13:43:03;2.33;;;1.90;;
20609;SDS011;10463;52.378;9.688;2022-12-22T13:45:53;2.50;;;1.97;;
20609;SDS011;10463;52.378;9.688;2022-12-22T13:48:42;2.60;;;1.93;;
20609;SDS011;10463;52.378;9.688;2022-12-22T13:51:29;2.50;;;2.10;;
20609;SDS011;10463;52.378;9.688;2022-12-22T13:54:21;2.33;;;1.80;;
20609;SDS011;10463;52.378;9.688;2022-12-22T13:57:14;2.80;;;2.07;;
20609;SDS011;10463;52.378;9.688;2022-12-22T14:00:01;2.77;;;1.90;;
20609;SDS011;10463;52.378;9.688;2022-12-22T14:02:53;2.53;;;2.07;;
20609;SDS011;10463;52.378;9.688;2022-12-22T14:05:38;2.03;;;1.53;;
20609;SDS011;10463;52.378;9.688;2022-12-22T14:08:23;2.10;;;1.60;;
20609;SDS011;10463;52.378;9.688;2022-12-22T14:11:08;2.60;;;2.30;;
20609;SDS011;10463;52.378;9.688;2022-12-22T14:13:54;2.27;;;1.80;;
20609;SDS011;10463;52.378;9.688;2022-12-22T14:16:41;2.53;;;1.90;;
20609;SDS011;10463;52.378;9.688;2022-12-22T14:19:30;1.90;;;1.40;;
20609;SDS011;10463;52.378;9.688;2022-12-22T14:22:20;3.50;;;1.93;;
20609;SDS011;10463;52.378;9.688;2022-12-22T14:25:07;2.30;;;1.90;;
20609;SDS011;10463;52.378;9.688;2022-12-22T14:27:56;2.40;;;1.93;;
20609;SDS011;10463;52.378;9.688;2022-12-22T14:30:45;2.40;;;1.80;;
20609;SDS011;10463;52.378;9.688;2022-12-22T14:33:33;1.90;;;1.57;;
20609;SDS011;10463;52.378;9.688;2022-12-22T14:36:19;2.33;;;1.63;;
20609;SDS011;10463;52.378;9.688;2022-12-22T14:39:09;2.87;;;2.27;;
20609;SDS011;10463;52.378;9.688;2022-12-22T14:42:04;4.47;;;3.93;;
20609;SDS011;10463;52.378;9.688;2022-12-22T14:44:56;4.63;;;3.77;;
20609;SDS011;10463;52.378;9.688;2022-12-22T14:47:42;3.63;;;3.20;;
20609;SDS011;10463;52.378;9.688;2022-12-22T14:50:28;3.90;;;3.10;;
20609;SDS011;10463;52.378;9.688;2022-12-22T14:53:12;3.97;;;3.53;;
20609;SDS011;10463;52.378;9.688;2022-12-22T14:55:59;6.00;;;2.93;;
20609;SDS011;10463;52.378;9.688;2022-12-22T14:58:45;3.97;;;2.97;;
20609;SDS011;10463;52.378;9.688;2022-12-22T15:01:30;4.33;;;3.27;;
20609;SDS011;10463;52.378;9.688;2022-12-22T15:04:18;3.67;;;3.13;;
20609;SDS011;10463;52.378;9.688;2022-12-22T15:07:04;4.70;;;3.53;;
20609;SDS011;10463;52.378;9.688;2022-12-22T15:09:59;3.37;;;2.70;;
20609;SDS011;10463;52.378;9.688;2022-12-22T15:12:45;4.33;;;3.20;;
20609;SDS011;10463;52.378;9.688;2022-12-22T15:15:32;4.00;;;3.50;;
20609;SDS011;10463;52.378;9.688;2022-12-22T15:18:18;3.90;;;2.97;;
20609;SDS011;10463;52.378;9.688;2022-12-22T15:21:10;3.33;;;2.90;;
20609;SDS011;10463;52.378;9.688;2022-12-22T15:23:56;3.67;;;3.27;;
20609;SDS011;10463;52.378;9.688;2022-12-22T15:26:42;3.90;;;2.80;;
20609;SDS011;10463;52.378;9.688;2022-12-22T15:29:27;4.70;;;3.27;;
20609;SDS011;10463;52.378;9.688;2022-12-22T15:32:12;4.80;;;3.70;;
20609;SDS011;10463;52.378;9.688;2022-12-22T15:34:57;4.60;;;3.50;;
20609;SDS011;10463;52.378;9.688;2022-12-22T15:37:46;4.07;;;3.07;;
20609;SDS011;10463;52.378;9.688;2022-12-22T15:40:31;4.60;;;2.90;;
20609;SDS011;10463;52.378;9.688;2022-12-22T15:43:16;5.03;;;4.00;;
20609;SDS011;10463;52.378;9.688;2022-12-22T15:46:02;5.40;;;4.20;;
20609;SDS011;10463;52.378;9.688;2022-12-22T15:48:49;6.63;;;4.77;;
20609;SDS011;10463;52.378;9.688;2022-12-22T15:51:33;5.30;;;4.07;;
20609;SDS011;10463;52.378;9.688;2022-12-22T15:54:19;6.60;;;5.20;;
20609;SDS011;10463;52.378;9.688;2022-12-22T15:57:08;6.20;;;4.50;;
20609;SDS011;10463;52.378;9.688;2022-12-22T15:59:55;5.13;;;4.53;;
20609;SDS011;10463;52.378;9.688;2022-12-22T16:02:40;5.00;;;3.90;;
20609;SDS011;10463;52.378;9.688;2022-12-22T16:05:25;6.30;;;5.00;;
20609;SDS011;10463;52.378;9.688;2022-12-22T16:08:10;5.47;;;4.50;;
20609;SDS011;10463;52.378;9.688;2022-12-22T16:10:58;4.50;;;3.80;;
20609;SDS011;10463;52.378;9.688;2022-12-22T16:13:43;6.00;;;4.37;;
20609;SDS011;10463;52.378;9.688;2022-12-22T16:16:29;4.90;;;4.40;;
20609;SDS011;10463;52.378;9.688;2022-12-22T16:19:14;5.80;;;5.20;;
20609;SDS011;10463;52.378;9.688;2022-12-22T16:22:00;6.63;;;3.57;;
20609;SDS011;10463;52.378;9.688;2022-12-22T16:24:46;6.70;;;4.47;;
20609;SDS011;10463;52.378;9.688;2022-12-22T16:27:33;4.93;;;4.00;;
20609;SDS011;10463;52.378;9.688;2022-12-22T16:30:20;4.60;;;3.70;;
20609;SDS011;10463;52.378;9.688;2022-12-22T16:33:08;5.53;;;4.20;;
20609;SDS011;10463;52.378;9.688;2022-12-22T16:35:54;4.20;;;3.20;;
20609;SDS011;10463;52.378;9.688;2022-12-22T16:38:39;4.63;;;3.93;;
20609;SDS011;10463;52.378;9.688;2022-12-22T16:41:24;4.27;;;3.60;;
20609;SDS011;10463;52.378;9.688;2022-12-22T16:44:11;4.90;;;3.60;;
20609;SDS011;10463;52.378;9.688;2022-12-22T16:47:03;3.77;;;3.37;;
20609;SDS011;10463;52.378;9.688;2022-12-22T16:49:49;4.30;;;3.57;;
20609;SDS011;10463;52.378;9.688;2022-12-22T16:52:35;4.17;;;3.23;;
20609;SDS011;10463;52.378;9.688;2022-12-22T16:55:21;3.90;;;3.43;;
20609;SDS011;10463;52.378;9.688;2022-12-22T16:58:08;4.00;;;3.30;;
20609;SDS011;10463;52.378;9.688;2022-12-22T17:00:55;3.97;;;3.20;;
20609;SDS011;10463;52.378;9.688;2022-12-22T17:03:40;4.47;;;3.47;;
20609;SDS011;10463;52.378;9.688;2022-12-22T17:06:26;5.57;;;3.47;;
20609;SDS011;10463;52.378;9.688;2022-12-22T17:09:12;3.33;;;2.77;;
20609;SDS011;10463;52.378;9.688;2022-12-22T17:12:00;3.90;;;3.07;;
20609;SDS011;10463;52.378;9.688;2022-12-22T17:14:46;4.47;;;3.20;;
20609;SDS011;10463;52.378;9.688;2022-12-22T17:17:34;2.97;;;2.70;;
20609;SDS011;10463;52.378;9.688;2022-12-22T17:20:21;4.67;;;3.47;;
20609;SDS011;10463;52.378;9.688;2022-12-22T17:23:28;3.47;;;3.17;;
20609;SDS011;10463;52.378;9.688;2022-12-22T17:26:17;3.53;;;2.80;;
20609;SDS011;10463;52.378;9.688;2022-12-22T17:29:03;3.10;;;2.80;;
20609;SDS011;10463;52.378;9.688;2022-12-22T17:31:48;3.43;;;2.70;;